SBI3237 UUDD-UTAA
Flight info
| Callsign | SBI3237 |
|---|---|
| Flight time | N/A |
| Altitude | 35000 |
| Route | LINR4Q LINRU T614 OSPER T828 OLBEG N72 WGD A927 SL A964 NOKLI N72 DUBOS W87 LIDUS G242 BABUR N193 NOGBU Q161 TIROM A87 MAMED MAM11A |
| Aircraft | A321/M-VGDW/C |
Departure
| Time | N/A |
|---|---|
| Airport | Domodedovo International Airport (UUDD) |
Arrival
| Time | 2026-04-27 16:32 |
|---|---|
| Airport | Ashgabat International Airport (UTAA) |
| Time | Latitude | Longitude | Altitude | Speed | Heading |
|---|---|---|---|---|---|
| 2026-04-27 15:18 | 44.33654 | 50.60088 | 34951 ft | 446 kts | 150° |
| 2026-04-27 15:18 | 44.28620 | 50.65156 | 34952 ft | 446 kts | 150° |
| 2026-04-27 15:19 | 44.23582 | 50.70207 | 34947 ft | 446 kts | 150° |
| 2026-04-27 15:19 | 44.18542 | 50.75254 | 34948 ft | 446 kts | 150° |
| 2026-04-27 15:20 | 44.13503 | 50.80300 | 34943 ft | 446 kts | 150° |
| 2026-04-27 15:20 | 44.08454 | 50.85343 | 34946 ft | 447 kts | 150° |
| 2026-04-27 15:21 | 44.03403 | 50.90382 | 34947 ft | 447 kts | 150° |
| 2026-04-27 15:21 | 43.98337 | 50.95422 | 34949 ft | 447 kts | 150° |
| 2026-04-27 15:22 | 43.93274 | 51.00444 | 34949 ft | 448 kts | 150° |
| 2026-04-27 15:22 | 43.88203 | 51.05474 | 34951 ft | 450 kts | 148° |
| 2026-04-27 15:23 | 43.83664 | 51.11561 | 34955 ft | 457 kts | 139° |
| 2026-04-27 15:23 | 43.79264 | 51.17928 | 34954 ft | 457 kts | 139° |
| 2026-04-27 15:24 | 43.74845 | 51.24261 | 34946 ft | 457 kts | 139° |
| 2026-04-27 15:24 | 43.70417 | 51.30595 | 34951 ft | 458 kts | 139° |
| 2026-04-27 15:25 | 43.65992 | 51.36930 | 34944 ft | 458 kts | 139° |
| 2026-04-27 15:25 | 43.61559 | 51.43262 | 34932 ft | 459 kts | 139° |
| 2026-04-27 15:26 | 43.57117 | 51.49577 | 34924 ft | 459 kts | 139° |
| 2026-04-27 15:26 | 43.52666 | 51.55896 | 34926 ft | 459 kts | 139° |
| 2026-04-27 15:27 | 43.48212 | 51.62215 | 34925 ft | 460 kts | 139° |
| 2026-04-27 15:27 | 43.43749 | 51.68526 | 34929 ft | 460 kts | 139° |
| 2026-04-27 15:28 | 43.40035 | 51.73767 | 34929 ft | 460 kts | 139° |
| 2026-04-27 15:28 | 43.35529 | 51.80099 | 34933 ft | 460 kts | 140° |
| 2026-04-27 15:29 | 43.31047 | 51.86385 | 34933 ft | 460 kts | 140° |
| 2026-04-27 15:29 | 43.26521 | 51.92584 | 34935 ft | 460 kts | 140° |
| 2026-04-27 15:30 | 43.21960 | 51.98753 | 34939 ft | 460 kts | 140° |
| 2026-04-27 15:30 | 43.17413 | 52.04912 | 34936 ft | 460 kts | 140° |
| 2026-04-27 15:31 | 43.12867 | 52.11080 | 34933 ft | 460 kts | 140° |
| 2026-04-27 15:31 | 43.08324 | 52.17245 | 34930 ft | 460 kts | 140° |
| 2026-04-27 15:32 | 43.03779 | 52.23411 | 34945 ft | 460 kts | 140° |
| 2026-04-27 15:32 | 42.99230 | 52.29560 | 34941 ft | 460 kts | 140° |
| 2026-04-27 15:33 | 42.94679 | 52.35682 | 34942 ft | 459 kts | 140° |
| 2026-04-27 15:33 | 42.90123 | 52.41794 | 34938 ft | 459 kts | 140° |
| 2026-04-27 15:34 | 42.85574 | 52.47903 | 34937 ft | 459 kts | 140° |
| 2026-04-27 15:34 | 42.81014 | 52.54003 | 34933 ft | 459 kts | 140° |
| 2026-04-27 15:35 | 42.76452 | 52.60084 | 34928 ft | 459 kts | 140° |
| 2026-04-27 15:35 | 42.71928 | 52.66112 | 34925 ft | 458 kts | 140° |
| 2026-04-27 15:36 | 42.67372 | 52.72178 | 34924 ft | 458 kts | 140° |
| 2026-04-27 15:36 | 42.62813 | 52.78222 | 34923 ft | 458 kts | 140° |
| 2026-04-27 15:37 | 42.58242 | 52.84254 | 34919 ft | 458 kts | 140° |
| 2026-04-27 15:37 | 42.53678 | 52.90280 | 34916 ft | 458 kts | 140° |
| 2026-04-27 15:38 | 42.49106 | 52.96302 | 34920 ft | 458 kts | 140° |
| 2026-04-27 15:38 | 42.44526 | 53.02313 | 34917 ft | 458 kts | 140° |
| 2026-04-27 15:39 | 42.39941 | 53.08319 | 34919 ft | 459 kts | 140° |
| 2026-04-27 15:39 | 42.35362 | 53.14325 | 34918 ft | 459 kts | 140° |
| 2026-04-27 15:40 | 42.30770 | 53.20324 | 34921 ft | 459 kts | 140° |
| 2026-04-27 15:40 | 42.26180 | 53.26304 | 34916 ft | 459 kts | 140° |
| 2026-04-27 15:41 | 42.21588 | 53.32293 | 34912 ft | 459 kts | 140° |
| 2026-04-27 15:41 | 42.16986 | 53.38274 | 34913 ft | 459 kts | 140° |
| 2026-04-27 15:42 | 42.12349 | 53.44284 | 34911 ft | 460 kts | 140° |
| 2026-04-27 15:42 | 42.07732 | 53.50261 | 34909 ft | 460 kts | 140° |
| 2026-04-27 15:43 | 42.03109 | 53.56225 | 34910 ft | 460 kts | 140° |
| 2026-04-27 15:43 | 41.98488 | 53.62187 | 34910 ft | 461 kts | 140° |
| 2026-04-27 15:44 | 41.93854 | 53.68144 | 34907 ft | 461 kts | 140° |
| 2026-04-27 15:44 | 41.89216 | 53.74085 | 34908 ft | 461 kts | 140° |
| 2026-04-27 15:45 | 41.84586 | 53.80021 | 34910 ft | 461 kts | 139° |
| 2026-04-27 15:45 | 41.79952 | 53.85959 | 34907 ft | 461 kts | 140° |
| 2026-04-27 15:46 | 41.75309 | 53.91872 | 34906 ft | 460 kts | 140° |
| 2026-04-27 15:46 | 41.70666 | 53.97778 | 34904 ft | 460 kts | 140° |
| 2026-04-27 15:47 | 41.66026 | 54.03670 | 34902 ft | 460 kts | 140° |
| 2026-04-27 15:47 | 41.61360 | 54.09581 | 34910 ft | 467 kts | 140° |
| 2026-04-27 15:48 | 41.56578 | 54.15629 | 34912 ft | 479 kts | 139° |
| 2026-04-27 15:49 | 41.49242 | 54.24881 | 34908 ft | 486 kts | 140° |
| 2026-04-27 15:49 | 41.44313 | 54.31074 | 34902 ft | 487 kts | 140° |
| 2026-04-27 15:50 | 41.39375 | 54.37267 | 34900 ft | 487 kts | 140° |
| 2026-04-27 15:50 | 41.34435 | 54.43457 | 34901 ft | 488 kts | 140° |
| 2026-04-27 15:51 | 41.29487 | 54.49635 | 34905 ft | 488 kts | 140° |
| 2026-04-27 15:51 | 41.24536 | 54.55815 | 34903 ft | 489 kts | 140° |
| 2026-04-27 15:52 | 41.19570 | 54.61991 | 34909 ft | 489 kts | 140° |
| 2026-04-27 15:52 | 41.14603 | 54.68154 | 34912 ft | 489 kts | 140° |
| 2026-04-27 15:53 | 41.09638 | 54.74317 | 34911 ft | 489 kts | 140° |
| 2026-04-27 15:53 | 41.04659 | 54.80462 | 34908 ft | 488 kts | 140° |
| 2026-04-27 15:54 | 40.99691 | 54.86575 | 34919 ft | 488 kts | 140° |
| 2026-04-27 15:54 | 40.94716 | 54.92700 | 34910 ft | 488 kts | 140° |
| 2026-04-27 15:55 | 40.89747 | 54.98805 | 34907 ft | 488 kts | 140° |
| 2026-04-27 15:55 | 40.84762 | 55.04911 | 34910 ft | 488 kts | 140° |
| 2026-04-27 15:56 | 40.79780 | 55.11001 | 34908 ft | 488 kts | 140° |
| 2026-04-27 15:56 | 40.74785 | 55.17085 | 34910 ft | 489 kts | 140° |
| 2026-04-27 15:57 | 40.69787 | 55.23153 | 34914 ft | 489 kts | 140° |
| 2026-04-27 15:57 | 40.64781 | 55.29231 | 34913 ft | 489 kts | 140° |
| 2026-04-27 15:58 | 40.59741 | 55.35341 | 34915 ft | 489 kts | 140° |
| 2026-04-27 15:58 | 40.54738 | 55.41395 | 34920 ft | 489 kts | 140° |
| 2026-04-27 15:59 | 40.49718 | 55.47441 | 34919 ft | 489 kts | 140° |
| 2026-04-27 15:59 | 40.44702 | 55.53478 | 34919 ft | 489 kts | 140° |
| 2026-04-27 16:00 | 40.39684 | 55.59508 | 34912 ft | 489 kts | 140° |
| 2026-04-27 16:00 | 40.34673 | 55.65524 | 34910 ft | 488 kts | 140° |
| 2026-04-27 16:01 | 40.29661 | 55.71523 | 34910 ft | 488 kts | 140° |
| 2026-04-27 16:01 | 40.24646 | 55.77511 | 34908 ft | 488 kts | 140° |
| 2026-04-27 16:02 | 40.19651 | 55.83511 | 34904 ft | 488 kts | 140° |
| 2026-04-27 16:02 | 40.14660 | 55.89516 | 34900 ft | 487 kts | 140° |
| 2026-04-27 16:03 | 40.09668 | 55.95512 | 34901 ft | 487 kts | 140° |
| 2026-04-27 16:03 | 40.04664 | 56.01488 | 34895 ft | 487 kts | 141° |
| 2026-04-27 16:04 | 39.99658 | 56.07446 | 34888 ft | 487 kts | 141° |
| 2026-04-27 16:04 | 39.95491 | 56.12406 | 34887 ft | 487 kts | 141° |
| 2026-04-27 16:05 | 39.90474 | 56.18357 | 34889 ft | 487 kts | 141° |
| 2026-04-27 16:05 | 39.85464 | 56.24295 | 34881 ft | 488 kts | 141° |
| 2026-04-27 16:06 | 39.80425 | 56.30220 | 34875 ft | 488 kts | 141° |
| 2026-04-27 16:06 | 39.77896 | 56.33168 | 34877 ft | 488 kts | 141° |
| 2026-04-27 16:07 | 39.64578 | 56.48674 | 34882 ft | 489 kts | 141° |
| 2026-04-27 16:08 | 39.59518 | 56.54553 | 34878 ft | 488 kts | 141° |
| 2026-04-27 16:08 | 39.54457 | 56.60420 | 34873 ft | 489 kts | 141° |
| 2026-04-27 16:09 | 39.49381 | 56.66289 | 34872 ft | 489 kts | 141° |
| 2026-04-27 16:09 | 39.41872 | 56.74949 | 34107 ft | 480 kts | 141° |
| 2026-04-27 16:10 | 39.36841 | 56.80715 | 32504 ft | 479 kts | 141° |
| 2026-04-27 16:10 | 39.31849 | 56.86477 | 30759 ft | 482 kts | 141° |
| 2026-04-27 16:11 | 39.29395 | 56.89332 | 30059 ft | 480 kts | 141° |
| 2026-04-27 16:11 | 39.24456 | 56.95055 | 28704 ft | 472 kts | 141° |
| 2026-04-27 16:12 | 39.20389 | 56.99744 | 27724 ft | 464 kts | 141° |
| 2026-04-27 16:12 | 39.17213 | 57.03384 | 26956 ft | 458 kts | 141° |
| 2026-04-27 16:12 | 39.12502 | 57.08782 | 25822 ft | 449 kts | 141° |
| 2026-04-27 16:13 | 39.10179 | 57.11448 | 25273 ft | 445 kts | 141° |
| 2026-04-27 16:13 | 39.06329 | 57.15852 | 24362 ft | 439 kts | 141° |
| 2026-04-27 16:13 | 39.03318 | 57.19289 | 23676 ft | 434 kts | 141° |
| 2026-04-27 16:14 | 38.99565 | 57.23585 | 22783 ft | 426 kts | 141° |
| 2026-04-27 16:14 | 38.95200 | 57.28556 | 21861 ft | 413 kts | 141° |
| 2026-04-27 16:15 | 38.90967 | 57.33364 | 20965 ft | 400 kts | 141° |
| 2026-04-27 16:15 | 38.86852 | 57.38039 | 20088 ft | 390 kts | 141° |
| 2026-04-27 16:16 | 38.82831 | 57.42602 | 19210 ft | 382 kts | 140° |
| 2026-04-27 16:16 | 38.78882 | 57.47074 | 18308 ft | 376 kts | 140° |
| 2026-04-27 16:17 | 38.74994 | 57.51479 | 17376 ft | 369 kts | 140° |
| 2026-04-27 16:17 | 38.71174 | 57.55788 | 16477 ft | 362 kts | 141° |
| 2026-04-27 16:18 | 38.67419 | 57.60016 | 15610 ft | 356 kts | 141° |
| 2026-04-27 16:18 | 38.63720 | 57.64173 | 14737 ft | 351 kts | 141° |
| 2026-04-27 16:19 | 38.61893 | 57.66226 | 14321 ft | 349 kts | 141° |
| 2026-04-27 16:19 | 38.60058 | 57.68239 | 13889 ft | 346 kts | 142° |
| 2026-04-27 16:20 | 38.54501 | 57.74010 | 12560 ft | 339 kts | 143° |
| 2026-04-27 16:20 | 38.52673 | 57.75893 | 12132 ft | 337 kts | 143° |
| 2026-04-27 16:20 | 38.49046 | 57.79638 | 11250 ft | 333 kts | 142° |
| 2026-04-27 16:21 | 38.47251 | 57.81499 | 10810 ft | 332 kts | 142° |
| 2026-04-27 16:21 | 38.42019 | 57.86942 | 10107 ft | 308 kts | 142° |
| 2026-04-27 16:22 | 38.40405 | 57.88618 | 9959 ft | 298 kts | 142° |
| 2026-04-27 16:22 | 38.37211 | 57.91923 | 9604 ft | 293 kts | 142° |
| 2026-04-27 16:22 | 38.35626 | 57.93563 | 9174 ft | 293 kts | 142° |
| 2026-04-27 16:23 | 38.34195 | 57.95045 | 8825 ft | 292 kts | 142° |
| 2026-04-27 16:23 | 38.31066 | 57.98283 | 8105 ft | 286 kts | 142° |
| 2026-04-27 16:23 | 38.29524 | 57.99877 | 7731 ft | 285 kts | 141° |
| 2026-04-27 16:24 | 38.27991 | 58.01462 | 7369 ft | 283 kts | 141° |
| 2026-04-27 16:24 | 38.24956 | 58.04590 | 6649 ft | 279 kts | 141° |
| 2026-04-27 16:25 | 38.21988 | 58.07639 | 5723 ft | 271 kts | 141° |
| 2026-04-27 16:25 | 38.19091 | 58.10621 | 4352 ft | 260 kts | 140° |
| 2026-04-27 16:26 | 38.16337 | 58.13456 | 3590 ft | 253 kts | 140° |
| 2026-04-27 16:26 | 38.13634 | 58.16231 | 3005 ft | 242 kts | 141° |
| 2026-04-27 16:27 | 38.10669 | 58.17711 | 2848 ft | 219 kts | 168° |
| 2026-04-27 16:27 | 38.06478 | 58.18668 | 2569 ft | 181 kts | 154° |
| 2026-04-27 16:28 | 38.04779 | 58.20549 | 2528 ft | 155 kts | 120° |
| 2026-04-27 16:28 | 38.03736 | 58.22897 | 2428 ft | 152 kts | 118° |
| 2026-04-27 16:29 | 38.02195 | 58.26369 | 1970 ft | 145 kts | 118° |
| 2026-04-27 16:30 | 38.01219 | 58.28568 | 1606 ft | 142 kts | 118° |
| 2026-04-27 16:30 | 38.00256 | 58.30752 | 1195 ft | 141 kts | 117° |
| 2026-04-27 16:31 | 37.98821 | 58.33970 | 688 ft | 138 kts | 117° |
| 2026-04-27 16:31 | 37.98098 | 58.35615 | 678 ft | 90 kts | 121° |
| 2026-04-27 16:32 | 37.97915 | 58.36483 | 678 ft | 43 kts | 87° |
| 2026-04-27 16:32 | 37.97835 | 58.36726 | 677 ft | 30 kts | 118° |
| 2026-04-27 16:33 | 37.97920 | 58.36959 | 678 ft | 19 kts | 30° |
| 2026-04-27 16:33 | 37.98020 | 58.37028 | 678 ft | 9 kts | 28° |
| 2026-04-27 16:33 | 37.98039 | 58.37040 | 678 ft | 0 kts | 28° |
| 2026-04-27 16:34 | 37.98051 | 58.37040 | 678 ft | 7 kts | 357° |
| 2026-04-27 16:34 | 37.98110 | 58.37024 | 678 ft | 9 kts | 8° |
| 2026-04-27 16:34 | 37.98162 | 58.37054 | 678 ft | 8 kts | 28° |
| 2026-04-27 16:34 | 37.98173 | 58.37062 | 678 ft | 0 kts | 30° |
| 2026-04-27 16:58 | 37.98172 | 58.37062 | 678 ft | 0 kts | 30° |
| 2026-04-27 17:02 | 37.98172 | 58.37061 | 678 ft | 0 kts | 30° |
| 2026-04-27 17:33 | 37.98171 | 58.37061 | 678 ft | 0 kts | 30° |
| 2026-04-27 17:52 | 37.98171 | 58.37060 | 678 ft | 0 kts | 30° |